Time,TemperatureF,DewpointF,PressureIn,WindDirection,WindDirectionDegrees,WindSpeedMPH,WindSpeedGustMPH,Humidity,HourlyPrecipIn,Conditions,Clouds,dailyrainin,SoftwareType,DateUTC
2013-03-11 00:12:00,50.5,41.0,29.78,NE,37,0.0,3.0,70,0.00,,,0.00,weatherlink.com 1.10,2013-03-11 04:12:00,
2013-03-11 00:27:00,49.8,41.0,29.78,NE,37,0.0,2.0,72,0.00,,,0.00,weatherlink.com 1.10,2013-03-11 04:27:00,
2013-03-11 00:43:00,49.1,42.0,29.78,NE,37,0.0,0.0,75,0.01,,,0.01,weatherlink.com 1.10,2013-03-11 04:43:00,
2013-03-11 00:58:00,48.8,42.0,29.77,ENE,75,0.0,4.0,77,0.01,,,0.01,weatherlink.com 1.10,2013-03-11 04:58:00,
2013-03-11 01:13:00,48.3,41.0,29.76,ENE,75,0.0,0.0,77,0.01,,,0.01,weatherlink.com 1.10,2013-03-11 05:13:00,
2013-03-11 01:28:00,48.2,41.0,29.76,ENE,72,0.0,1.0,77,0.01,,,0.01,weatherlink.com 1.10,2013-03-11 05:28:00,
2013-03-11 01:43:00,48.6,42.0,29.75,SW,229,0.0,2.0,77,0.00,,,0.01,weatherlink.com 1.10,2013-03-11 05:43:00,
2013-03-11 01:58:00,49.1,42.0,29.75,West,271,0.0,3.0,77,0.00,,,0.01,weatherlink.com 1.10,2013-03-11 05:58:00,
2013-03-11 02:13:00,49.1,44.0,29.75,NNE,33,1.0,4.0,81,0.01,,,0.02,weatherlink.com 1.10,2013-03-11 06:13:00,
2013-03-11 02:28:00,48.9,44.0,29.75,ENE,58,0.0,4.0,84,0.01,,,0.02,weatherlink.com 1.10,2013-03-11 06:28:00,
2013-03-11 02:43:00,48.9,45.0,29.75,SSW,211,1.0,7.0,87,0.01,,,0.02,weatherlink.com 1.10,2013-03-11 06:43:00,
2013-03-11 02:58:00,48.9,46.0,29.75,ENE,75,3.0,3.0,88,0.01,,,0.02,weatherlink.com 1.10,2013-03-11 06:58:00,
2013-03-11 03:13:00,49.1,46.0,29.73,West,272,0.0,2.0,89,0.01,,,0.03,weatherlink.com 1.10,2013-03-11 07:13:00,
2013-03-11 03:28:00,48.9,46.0,29.73,SE,134,0.0,2.0,90,0.01,,,0.03,weatherlink.com 1.10,2013-03-11 07:28:00,
2013-03-11 03:43:00,48.9,46.0,29.74,North,1,3.0,3.0,90,0.01,,,0.03,weatherlink.com 1.10,2013-03-11 07:43:00,
2013-03-11 03:58:00,49.1,47.0,29.73,South,176,0.0,2.0,91,0.01,,,0.03,weatherlink.com 1.10,2013-03-11 07:58:00,
2013-03-11 04:13:00,49.4,47.0,29.73,SSW,196,5.0,5.0,91,0.00,,,0.03,weatherlink.com 1.10,2013-03-11 08:13:00,
2013-03-11 04:28:00,49.4,47.0,29.72,SSW,212,2.0,2.0,91,0.00,,,0.03,weatherlink.com 1.10,2013-03-11 08:28:00,
2013-03-11 04:43:00,49.4,47.0,29.72,West,279,0.0,4.0,91,0.00,,,0.03,weatherlink.com 1.10,2013-03-11 08:43:00,
2013-03-11 04:58:00,49.4,47.0,29.72,WSW,252,2.0,5.0,91,0.00,,,0.03,weatherlink.com 1.10,2013-03-11 08:58:00,
2013-03-11 05:13:00,49.5,47.0,29.72,SW,215,2.0,6.0,91,0.00,,,0.03,weatherlink.com 1.10,2013-03-11 09:13:00,
2013-03-11 05:28:00,49.4,47.0,29.71,ESE,123,0.0,2.0,91,0.00,,,0.03,weatherlink.com 1.10,2013-03-11 09:28:00,
2013-03-11 05:43:00,49.4,47.0,29.70,West,276,2.0,3.0,91,0.00,,,0.03,weatherlink.com 1.10,2013-03-11 09:43:00,
2013-03-11 05:58:00,49.1,47.0,29.71,South,170,0.0,3.0,91,0.00,,,0.03,weatherlink.com 1.10,2013-03-11 09:58:00,
2013-03-11 06:13:00,48.9,46.0,29.72,SSW,201,0.0,4.0,91,0.00,,,0.03,weatherlink.com 1.10,2013-03-11 10:13:00,
2013-03-11 06:28:00,48.8,46.0,29.70,West,273,0.0,3.0,91,0.00,,,0.03,weatherlink.com 1.10,2013-03-11 10:28:00,
2013-03-11 06:43:00,48.3,46.0,29.70,West,273,0.0,1.0,91,0.00,,,0.03,weatherlink.com 1.10,2013-03-11 10:43:00,
2013-03-11 06:58:00,48.0,46.0,29.69,West,273,0.0,0.0,91,0.00,,,0.03,weatherlink.com 1.10,2013-03-11 10:58:00,
2013-03-11 07:13:00,47.6,45.0,29.71,West,273,0.0,0.0,91,0.00,,,0.03,weatherlink.com 1.10,2013-03-11 11:13:00,
2013-03-11 07:28:00,47.1,45.0,29.73,West,273,0.0,0.0,91,0.00,,,0.03,weatherlink.com 1.10,2013-03-11 11:28:00,
2013-03-11 07:43:00,46.5,44.0,29.71,West,273,0.0,0.0,91,0.00,,,0.03,weatherlink.com 1.10,2013-03-11 11:43:00,
2013-03-11 07:58:00,46.4,44.0,29.71,West,273,0.0,1.0,91,0.00,,,0.03,weatherlink.com 1.10,2013-03-11 11:58:00,
2013-03-11 08:13:00,46.4,44.0,29.71,North,1,2.0,2.0,92,0.00,,,0.03,weatherlink.com 1.10,2013-03-11 12:13:00,
2013-03-11 08:28:00,46.5,44.0,29.71,North,1,0.0,0.0,92,0.00,,,0.03,weatherlink.com 1.10,2013-03-11 12:28:00,
2013-03-11 08:43:00,46.7,45.0,29.70,North,1,0.0,0.0,92,0.00,,,0.03,weatherlink.com 1.10,2013-03-11 12:43:00,
2013-03-11 08:58:00,46.5,44.0,29.70,North,1,0.0,0.0,92,0.00,,,0.03,weatherlink.com 1.10,2013-03-11 12:58:00,
2013-03-11 09:13:00,47.0,45.0,29.69,North,1,0.0,0.0,92,0.00,,,0.03,weatherlink.com 1.10,2013-03-11 13:13:00,
2013-03-11 09:28:00,47.3,45.0,29.68,North,6,0.0,1.0,92,0.00,,,0.03,weatherlink.com 1.10,2013-03-11 13:28:00,
2013-03-11 09:43:00,48.0,46.0,29.68,East,95,0.0,3.0,92,0.00,,,0.03,weatherlink.com 1.10,2013-03-11 13:43:00,
2013-03-11 09:58:00,48.5,46.0,29.68,ENE,60,0.0,4.0,92,0.00,,,0.03,weatherlink.com 1.10,2013-03-11 13:58:00,
2013-03-11 10:13:00,48.8,47.0,29.68,NNE,25,0.0,3.0,92,0.00,,,0.03,weatherlink.com 1.10,2013-03-11 14:13:00,
2013-03-11 10:28:00,48.8,46.0,29.68,ESE,109,0.0,1.0,91,0.00,,,0.03,weatherlink.com 1.10,2013-03-11 14:28:00,
2013-03-11 10:43:00,48.6,46.0,29.66,ENE,57,0.0,2.0,91,0.00,,,0.03,weatherlink.com 1.10,2013-03-11 14:43:00,
2013-03-11 10:58:00,48.8,46.0,29.66,NE,40,0.0,5.0,91,0.00,,,0.03,weatherlink.com 1.10,2013-03-11 14:58:00,
2013-03-11 11:13:00,48.9,46.0,29.64,ESE,120,0.0,7.0,91,0.01,,,0.04,weatherlink.com 1.10,2013-03-11 15:13:00,
2013-03-11 11:28:00,48.9,46.0,29.63,ESE,116,0.0,5.0,91,0.01,,,0.04,weatherlink.com 1.10,2013-03-11 15:28:00,
2013-03-11 11:43:00,48.8,46.0,29.63,ESE,115,0.0,1.0,91,0.02,,,0.05,weatherlink.com 1.10,2013-03-11 15:43:00,
2013-03-11 11:58:00,48.5,46.0,29.65,WNW,293,2.0,5.0,91,0.04,,,0.07,weatherlink.com 1.10,2013-03-11 15:58:00,
2013-03-11 12:13:00,46.1,43.0,29.65,WSW,246,2.0,9.0,90,0.05,,,0.09,weatherlink.com 1.10,2013-03-11 16:13:00,
2013-03-11 12:28:00,46.0,43.0,29.64,WSW,250,1.0,7.0,90,0.06,,,0.10,weatherlink.com 1.10,2013-03-11 16:28:00,
2013-03-11 12:43:00,45.8,43.0,29.64,West,279,2.0,10.0,90,0.07,,,0.12,weatherlink.com 1.10,2013-03-11 16:43:00,
2013-03-11 12:59:00,45.2,42.0,29.63,West,271,5.0,8.0,89,0.05,,,0.12,weatherlink.com 1.10,2013-03-11 16:59:00,
2013-03-11 13:14:00,44.8,41.0,29.64,SSW,200,4.0,11.0,87,0.03,,,0.12,weatherlink.com 1.10,2013-03-11 17:14:00,
2013-03-11 13:29:00,44.3,40.0,29.64,WSW,241,3.0,7.0,86,0.02,,,0.12,weatherlink.com 1.10,2013-03-11 17:29:00,
2013-03-11 13:44:00,44.1,40.0,29.64,West,268,0.0,8.0,86,0.00,,,0.12,weatherlink.com 1.10,2013-03-11 17:44:00,
2013-03-11 13:59:00,43.9,40.0,29.63,SE,133,1.0,6.0,86,0.00,,,0.12,weatherlink.com 1.10,2013-03-11 17:59:00,
2013-03-11 14:14:00,45.1,41.0,29.60,WSW,243,6.0,10.0,84,0.00,,,0.12,weatherlink.com 1.10,2013-03-11 18:14:00,
2013-03-11 14:29:00,46.4,41.0,29.62,West,274,1.0,9.0,80,0.00,,,0.12,weatherlink.com 1.10,2013-03-11 18:29:00,
2013-03-11 14:44:00,45.7,39.0,29.61,WSW,253,3.0,8.0,78,0.00,,,0.12,weatherlink.com 1.10,2013-03-11 18:44:00,
2013-03-11 14:59:00,45.8,39.0,29.60,South,181,3.0,7.0,76,0.00,,,0.12,weatherlink.com 1.10,2013-03-11 18:59:00,
2013-03-11 15:14:00,44.8,38.0,29.61,West,259,1.0,9.0,77,0.00,,,0.12,weatherlink.com 1.10,2013-03-11 19:14:00,
2013-03-11 15:29:00,43.5,37.0,29.61,NNW,333,4.0,7.0,78,0.00,,,0.12,weatherlink.com 1.10,2013-03-11 19:29:00,
2013-03-11 15:44:00,42.3,36.0,29.62,East,89,6.0,10.0,78,0.00,,,0.12,weatherlink.com 1.10,2013-03-11 19:44:00,
2013-03-11 15:59:00,41.8,36.0,29.63,South,191,7.0,13.0,79,0.00,,,0.12,weatherlink.com 1.10,2013-03-11 19:59:00,
2013-03-11 16:14:00,41.1,35.0,29.63,WSW,257,5.0,10.0,80,0.00,,,0.12,weatherlink.com 1.10,2013-03-11 20:14:00,
2013-03-11 16:29:00,40.5,35.0,29.64,SSW,212,0.0,8.0,80,0.00,,,0.12,weatherlink.com 1.10,2013-03-11 20:29:00,
2013-03-11 16:44:00,39.5,34.0,29.65,West,269,6.0,9.0,81,0.00,,,0.12,weatherlink.com 1.10,2013-03-11 20:44:00,
2013-03-11 16:59:00,38.8,34.0,29.66,SW,229,6.0,11.0,82,0.00,,,0.12,weatherlink.com 1.10,2013-03-11 20:59:00,
2013-03-11 17:29:00,37.8,33.0,29.67,East,91,2.0,12.0,82,0.00,,,0.12,weatherlink.com 1.10,2013-03-11 21:29:00,
2013-03-11 17:44:00,37.8,33.0,29.68,WNW,283,7.0,12.0,83,0.00,,,0.12,weatherlink.com 1.10,2013-03-11 21:44:00,
2013-03-11 17:59:00,37.3,33.0,29.69,NNW,342,4.0,15.0,83,0.00,,,0.12,weatherlink.com 1.10,2013-03-11 21:59:00,
2013-03-11 18:14:00,37.0,32.0,29.69,West,273,2.0,9.0,83,0.00,,,0.12,weatherlink.com 1.10,2013-03-11 22:14:00,
2013-03-11 18:29:00,37.0,32.0,29.69,WNW,296,1.0,8.0,82,0.00,,,0.12,weatherlink.com 1.10,2013-03-11 22:29:00,
2013-03-11 18:44:00,36.9,32.0,29.70,West,279,4.0,10.0,82,0.00,,,0.12,weatherlink.com 1.10,2013-03-11 22:44:00,
2013-03-11 18:59:00,37.2,32.0,29.70,WSW,245,4.0,10.0,82,0.00,,,0.12,weatherlink.com 1.10,2013-03-11 22:59:00,
2013-03-11 19:14:00,37.0,32.0,29.71,WSW,252,4.0,8.0,82,0.00,,,0.12,weatherlink.com 1.10,2013-03-11 23:14:00,
2013-03-11 19:29:00,36.8,32.0,29.71,West,271,4.0,9.0,84,0.00,,,0.12,weatherlink.com 1.10,2013-03-11 23:29:00,
2013-03-11 19:44:00,36.6,33.0,29.72,WSW,248,3.0,9.0,85,0.00,,,0.12,weatherlink.com 1.10,2013-03-11 23:44:00,
2013-03-11 19:59:00,36.5,33.0,29.73,NNW,337,3.0,8.0,86,0.00,,,0.12,weatherlink.com 1.10,2013-03-11 23:59:00,
2013-03-11 20:14:00,36.5,33.0,29.74,South,189,1.0,8.0,86,0.00,,,0.12,weatherlink.com 1.10,2013-03-12 00:14:00,
2013-03-11 20:29:00,36.3,33.0,29.74,WSW,245,5.0,8.0,86,0.00,,,0.12,weatherlink.com 1.10,2013-03-12 00:29:00,
2013-03-11 20:45:00,36.2,32.0,29.75,SSW,195,1.0,8.0,86,0.01,,,0.13,weatherlink.com 1.10,2013-03-12 00:45:00,
2013-03-11 21:00:00,35.8,32.0,29.76,WNW,282,2.0,7.0,85,0.01,,,0.13,weatherlink.com 1.10,2013-03-12 01:00:00,
2013-03-11 21:15:00,35.8,31.0,29.77,WSW,253,3.0,8.0,84,0.01,,,0.13,weatherlink.com 1.10,2013-03-12 01:15:00,
2013-03-11 21:30:00,35.6,31.0,29.77,West,269,4.0,7.0,83,0.01,,,0.13,weatherlink.com 1.10,2013-03-12 01:30:00,
2013-03-11 21:45:00,35.5,31.0,29.78,WSW,257,3.0,10.0,82,0.00,,,0.13,weatherlink.com 1.10,2013-03-12 01:45:00,
2013-03-11 22:00:00,35.3,30.0,29.79,NNW,328,5.0,9.0,82,0.00,,,0.13,weatherlink.com 1.10,2013-03-12 02:00:00,
2013-03-11 22:15:00,35.0,30.0,29.79,WSW,258,1.0,11.0,81,0.00,,,0.13,weatherlink.com 1.10,2013-03-12 02:15:00,
2013-03-11 22:30:00,35.0,30.0,29.80,North,359,3.0,8.0,81,0.00,,,0.13,weatherlink.com 1.10,2013-03-12 02:30:00,
2013-03-11 22:45:00,34.9,30.0,29.80,WNW,295,0.0,9.0,82,0.00,,,0.13,weatherlink.com 1.10,2013-03-12 02:45:00,
2013-03-11 23:00:00,34.6,30.0,29.81,WNW,297,2.0,7.0,82,0.00,,,0.13,weatherlink.com 1.10,2013-03-12 03:00:00,
2013-03-11 23:15:00,34.6,29.0,29.82,WSW,255,6.0,9.0,81,0.00,,,0.13,weatherlink.com 1.10,2013-03-12 03:15:00,
2013-03-11 23:30:00,34.4,29.0,29.82,West,259,2.0,13.0,80,0.00,,,0.13,weatherlink.com 1.10,2013-03-12 03:30:00,
2013-03-11 23:45:00,34.1,30.0,29.83,West,277,1.0,10.0,83,0.00,,,0.13,weatherlink.com 1.10,2013-03-12 03:45:00,